createdAt,value
2023-04-18T00:00:17.892Z,16.10
2023-04-18T00:02:45.761Z,16.33
2023-04-18T00:05:13.587Z,10.98
2023-04-18T00:07:41.477Z,12.30
2023-04-18T00:10:09.123Z,16.23
2023-04-18T00:12:36.626Z,19.98
2023-04-18T00:15:06.168Z,21.27
2023-04-18T00:17:34.234Z,19.20
2023-04-18T00:20:04.968Z,15.90
2023-04-18T00:22:32.459Z,13.95
2023-04-18T00:25:00.488Z,16.95
2023-04-18T00:27:27.846Z,19.20
2023-04-18T00:29:55.107Z,30.60
2023-04-18T00:32:22.490Z,17.27
2023-04-18T00:34:49.936Z,20.07
2023-04-18T00:37:19.796Z,18.40
2023-04-18T00:39:53.940Z,12.35
2023-04-18T00:42:22.337Z,12.82
2023-04-18T00:47:17.749Z,20.92
2023-04-18T00:49:46.459Z,13.50
2023-04-18T00:52:14.272Z,24.92
2023-04-18T00:54:41.828Z,15.50
2023-04-18T00:57:09.699Z,27.02
2023-04-18T00:59:37.419Z,17.65
2023-04-18T01:02:05.712Z,27.40
2023-04-18T01:04:34.512Z,14.23
2023-04-18T01:07:03.390Z,17.73
2023-04-18T01:09:31.075Z,13.73
2023-04-18T01:11:58.379Z,16.42
2023-04-18T01:14:25.753Z,16.60
2023-04-18T01:16:53.437Z,14.50
2023-04-18T01:19:20.967Z,15.43
2023-04-18T01:21:48.232Z,15.27
2023-04-18T01:24:17.857Z,12.20
2023-04-18T01:26:49.816Z,20.55
2023-04-18T01:29:17.163Z,17.60
2023-04-18T01:31:44.537Z,11.57
2023-04-18T01:34:12.143Z,25.52
2023-04-18T01:36:42.356Z,12.55
2023-04-18T01:39:13.565Z,10.02
2023-04-18T01:41:42.394Z,17.75
2023-04-18T01:44:10.702Z,14.73
2023-04-18T01:46:39.037Z,19.45
2023-04-18T01:51:33.951Z,17.77
2023-04-18T01:54:01.332Z,19.43
2023-04-18T01:56:28.580Z,17.00
2023-04-18T01:58:59.773Z,17.92
2023-04-18T02:01:27.388Z,14.93
2023-04-18T02:03:55.015Z,20.20
2023-04-18T02:06:22.518Z,14.85
2023-04-18T02:08:49.777Z,15.90
2023-04-18T02:11:17.069Z,16.88
2023-04-18T02:13:44.793Z,17.73
2023-04-18T02:16:14.045Z,21.55
2023-04-18T02:18:44.236Z,15.77
2023-04-18T02:21:12.131Z,15.65
2023-04-18T02:23:39.522Z,20.80
2023-04-18T02:26:06.797Z,19.47
2023-04-18T02:28:34.416Z,17.47
2023-04-18T02:31:04.107Z,17.02
2023-04-18T02:33:35.387Z,17.70
2023-04-18T02:36:02.723Z,16.53
2023-04-18T02:38:30.242Z,24.17
2023-04-18T02:40:57.869Z,14.50
2023-04-18T02:43:25.351Z,20.60
2023-04-18T02:45:52.830Z,22.10
2023-04-18T02:48:20.987Z,17.90
2023-04-18T02:50:48.312Z,24.00
2023-04-18T02:53:17.221Z,20.23
2023-04-18T02:55:55.867Z,18.48
2023-04-18T02:58:30.088Z,21.25
2023-04-18T03:01:20.303Z,20.55
2023-04-18T03:03:58.594Z,27.63
2023-04-18T03:06:48.025Z,16.25
2023-04-18T03:09:16.941Z,18.08
2023-04-18T03:11:49.497Z,23.27
2023-04-18T03:14:20.660Z,21.48
2023-04-18T03:16:55.427Z,36.63
2023-04-18T03:19:27.363Z,24.25
2023-04-18T03:21:56.939Z,25.42
2023-04-18T03:24:24.284Z,32.67
2023-04-18T03:26:54.306Z,56.42
2023-04-18T03:29:25.076Z,30.15
2023-04-18T03:31:52.562Z,41.43
2023-04-18T03:34:19.851Z,31.80
2023-04-18T03:36:48.211Z,35.30
2023-04-18T03:39:16.937Z,38.58
2023-04-18T03:41:45.058Z,36.15
2023-04-18T03:44:13.387Z,19.85
2023-04-18T03:46:42.143Z,23.70
2023-04-18T03:49:11.328Z,35.90
2023-04-18T03:51:49.970Z,25.13
2023-04-18T03:54:18.604Z,31.08
2023-04-18T03:56:46.422Z,41.80
2023-04-18T03:59:15.562Z,35.58
2023-04-18T04:01:46.760Z,29.05
2023-04-18T04:04:15.804Z,32.70
2023-04-18T04:06:43.921Z,25.48
2023-04-18T04:09:11.242Z,37.45
2023-04-18T04:11:39.756Z,27.20
2023-04-18T04:14:09.702Z,37.05
2023-04-18T04:16:41.849Z,37.75
2023-04-18T04:19:11.583Z,45.13
2023-04-18T04:21:45.538Z,40.78
2023-04-18T04:24:16.418Z,42.83
2023-04-18T04:26:48.841Z,28.70
2023-04-18T04:29:21.644Z,27.55
2023-04-18T04:31:49.617Z,20.58
2023-04-18T04:34:31.106Z,28.80
2023-04-18T04:37:00.900Z,46.70
2023-04-18T04:39:29.693Z,31.15
2023-04-18T04:42:33.793Z,21.48
2023-04-18T04:45:09.762Z,45.17
2023-04-18T04:47:37.314Z,39.45
2023-04-18T04:50:07.561Z,25.63
2023-04-18T04:52:34.870Z,29.90
2023-04-18T04:55:03.581Z,39.28
2023-04-18T04:57:32.031Z,53.20
2023-04-18T04:59:59.421Z,37.43
2023-04-18T05:02:27.802Z,32.17
2023-04-18T05:04:55.519Z,21.67
2023-04-18T05:07:22.849Z,32.03
2023-04-18T05:09:50.096Z,31.83
2023-04-18T05:12:17.286Z,29.48
2023-04-18T05:14:44.559Z,33.83
2023-04-18T05:17:11.807Z,28.30
2023-04-18T05:19:39.578Z,20.13
2023-04-18T05:22:06.809Z,27.65
2023-04-18T05:24:34.161Z,22.55
2023-04-18T05:27:01.748Z,23.90
2023-04-18T05:29:29.035Z,23.02
2023-04-18T05:31:56.218Z,21.13
2023-04-18T05:34:23.529Z,20.95
2023-04-18T05:36:50.826Z,27.50
2023-04-18T05:39:17.995Z,30.67
2023-04-18T05:41:45.233Z,42.40
2023-04-18T05:44:12.518Z,34.35
2023-04-18T05:46:39.916Z,25.40
2023-04-18T05:49:07.291Z,23.73
2023-04-18T05:51:34.652Z,21.30
2023-04-18T05:54:01.972Z,21.07
2023-04-18T05:56:29.684Z,22.43
2023-04-18T05:58:56.986Z,16.13
2023-04-18T06:01:24.196Z,15.55
2023-04-18T06:03:51.661Z,22.07
2023-04-18T06:06:19.193Z,20.50
2023-04-18T06:08:46.408Z,16.92
2023-04-18T06:11:15.431Z,20.33
2023-04-18T06:13:43.148Z,21.55
2023-04-18T06:16:10.484Z,25.17
2023-04-18T06:18:38.006Z,21.53
2023-04-18T06:21:05.538Z,19.67
2023-04-18T06:23:32.884Z,23.30
2023-04-18T06:26:00.150Z,15.65
2023-04-18T06:28:27.445Z,24.60
2023-04-18T06:30:54.707Z,19.50
2023-04-18T06:33:22.048Z,27.70
2023-04-18T06:35:49.318Z,23.13
2023-04-18T06:38:16.683Z,14.40
2023-04-18T06:40:43.930Z,11.98
2023-04-18T06:43:11.258Z,24.90
2023-04-18T06:45:40.387Z,19.02
2023-04-18T06:48:09.194Z,19.67
2023-04-18T06:50:36.723Z,22.63
2023-04-18T06:53:03.957Z,18.73
2023-04-18T06:55:31.435Z,25.03
2023-04-18T06:58:00.516Z,19.83
2023-04-18T07:00:27.788Z,12.73
2023-04-18T07:02:55.147Z,17.43
2023-04-18T07:05:22.504Z,17.48
2023-04-18T07:07:49.738Z,24.97
2023-04-18T07:10:16.907Z,20.90
2023-04-18T07:12:44.122Z,15.02
2023-04-18T07:15:11.595Z,11.43
2023-04-18T07:17:38.881Z,15.05
2023-04-18T07:20:07.185Z,10.57
2023-04-18T07:22:34.315Z,12.10
2023-04-18T07:25:01.543Z,14.75
2023-04-18T07:27:31.326Z,16.63
2023-04-18T07:29:58.652Z,9.90
2023-04-18T07:32:26.093Z,19.47
2023-04-18T07:34:53.983Z,13.63
2023-04-18T07:37:21.606Z,9.80
2023-04-18T07:39:49.162Z,12.05
2023-04-18T07:42:16.442Z,7.55
2023-04-18T07:44:44.650Z,25.27
2023-04-18T07:49:39.590Z,12.27
2023-04-18T07:52:07.508Z,14.30
2023-04-18T07:54:34.820Z,14.95
2023-04-18T07:57:02.066Z,13.20
2023-04-18T07:59:29.832Z,8.90
2023-04-18T08:01:57.044Z,12.23
2023-04-18T08:04:25.821Z,11.03
2023-04-18T08:06:57.351Z,9.48
2023-04-18T08:09:25.315Z,10.20
2023-04-18T08:11:52.580Z,13.95
2023-04-18T08:14:19.872Z,18.93
2023-04-18T08:16:47.127Z,16.50
2023-04-18T08:19:14.617Z,11.87
2023-04-18T08:21:41.920Z,10.60
2023-04-18T08:24:09.190Z,15.67
2023-04-18T08:26:36.396Z,15.07
2023-04-18T08:29:03.622Z,17.35
2023-04-18T08:31:31.848Z,17.65
2023-04-18T08:33:59.084Z,10.88
2023-04-18T08:36:26.874Z,17.63
2023-04-18T08:38:54.134Z,8.45
2023-04-18T08:41:26.627Z,8.90
2023-04-18T08:43:55.235Z,10.90
2023-04-18T08:46:24.219Z,16.10
2023-04-18T08:48:51.522Z,11.60
2023-04-18T08:51:18.942Z,9.98
2023-04-18T08:53:48.464Z,11.87
2023-04-18T08:56:16.417Z,11.70
2023-04-18T08:58:45.231Z,11.18
2023-04-18T09:01:13.715Z,18.77
2023-04-18T09:03:43.316Z,12.77
2023-04-18T09:06:18.983Z,11.13
2023-04-18T09:08:59.306Z,11.98
2023-04-18T09:11:29.880Z,24.50
2023-04-18T09:13:59.057Z,13.57
2023-04-18T09:16:28.054Z,13.13
2023-04-18T09:19:13.858Z,13.23
2023-04-18T09:21:46.367Z,7.78
2023-04-18T09:24:22.666Z,16.65
2023-04-18T09:26:51.437Z,19.90
2023-04-18T09:29:22.495Z,18.38
2023-04-18T09:32:01.498Z,13.35
2023-04-18T09:34:29.732Z,16.15
2023-04-18T09:37:11.830Z,12.57
2023-04-18T09:39:42.309Z,13.07
2023-04-18T09:42:11.247Z,10.60
2023-04-18T09:44:39.636Z,8.95
2023-04-18T09:47:08.037Z,11.35
2023-04-18T09:49:35.496Z,14.70
2023-04-18T09:52:07.308Z,14.15
2023-04-18T09:54:38.525Z,11.13
2023-04-18T09:57:11.162Z,8.60
2023-04-18T09:59:55.134Z,13.85
2023-04-18T10:02:24.655Z,11.05
2023-04-18T10:04:54.376Z,17.85
2023-04-18T10:07:23.382Z,14.07
2023-04-18T10:09:53.433Z,13.05
2023-04-18T10:12:21.181Z,24.10
2023-04-18T10:14:48.805Z,14.20
2023-04-18T10:17:16.322Z,9.43
2023-04-18T10:19:46.041Z,12.45
2023-04-18T10:22:13.554Z,14.32
2023-04-18T10:24:56.256Z,9.77
2023-04-18T10:27:48.578Z,14.18
2023-04-18T10:30:17.223Z,12.32
2023-04-18T10:32:47.517Z,17.45
2023-04-18T10:35:14.845Z,16.15
2023-04-18T10:37:52.186Z,29.63
2023-04-18T10:40:34.287Z,30.08
2023-04-18T10:43:01.962Z,35.08
2023-04-18T10:45:32.661Z,15.43
2023-04-18T10:48:27.636Z,19.08
2023-04-18T10:51:21.055Z,25.13
2023-04-18T10:53:59.738Z,29.27
2023-04-18T10:56:28.320Z,26.40
2023-04-18T10:58:59.390Z,28.67
2023-04-18T11:01:32.130Z,26.30
2023-04-18T11:04:01.294Z,24.85
2023-04-18T11:06:29.120Z,21.65
2023-04-18T11:09:13.781Z,27.10
2023-04-18T11:11:42.158Z,30.95
2023-04-18T11:14:09.560Z,19.83
2023-04-18T11:16:36.989Z,25.48
2023-04-18T11:19:25.848Z,24.95
2023-04-18T11:21:53.096Z,17.17
2023-04-18T11:24:26.434Z,19.93
2023-04-18T11:26:56.188Z,25.30
2023-04-18T11:29:24.010Z,23.90
2023-04-18T11:31:55.991Z,29.93
2023-04-18T11:34:31.900Z,22.77
2023-04-18T11:36:59.613Z,19.80
2023-04-18T11:39:26.917Z,22.25
2023-04-18T11:41:56.530Z,17.08
2023-04-18T11:44:25.897Z,25.15
2023-04-18T11:46:54.178Z,14.85
2023-04-18T11:51:56.438Z,20.98
2023-04-18T11:54:44.934Z,25.52
2023-04-18T11:57:23.911Z,19.57
2023-04-18T11:59:53.192Z,19.83
2023-04-18T12:02:22.656Z,26.40
2023-04-18T12:04:59.531Z,21.98
2023-04-18T12:07:37.484Z,20.20
2023-04-18T12:10:23.517Z,30.33
2023-04-18T12:12:59.743Z,20.73
2023-04-18T12:15:29.840Z,17.70
2023-04-18T12:18:03.890Z,23.33
2023-04-18T12:20:50.275Z,23.45
2023-04-18T12:23:41.979Z,27.10
2023-04-18T12:26:15.387Z,19.63
2023-04-18T12:28:46.596Z,18.20
2023-04-18T12:31:13.873Z,23.05
2023-04-18T12:33:41.196Z,29.23
2023-04-18T12:36:10.015Z,31.00
2023-04-18T12:38:37.392Z,20.58
2023-04-18T12:41:05.567Z,27.03
2023-04-18T12:46:00.208Z,23.80
2023-04-18T12:48:27.496Z,14.43
2023-04-18T12:50:54.938Z,30.27
2023-04-18T12:53:22.131Z,22.05
2023-04-18T12:55:49.426Z,25.03
2023-04-18T12:58:18.811Z,17.65
2023-04-18T13:00:46.523Z,17.90
2023-04-18T13:03:14.011Z,15.13
2023-04-18T13:05:41.626Z,24.30
2023-04-18T13:08:17.045Z,20.25
2023-04-18T13:10:47.760Z,28.48
2023-04-18T13:13:15.381Z,28.70
2023-04-18T13:15:42.799Z,32.30
2023-04-18T13:18:10.260Z,30.33
2023-04-18T13:20:37.686Z,26.30
2023-04-18T13:23:05.296Z,13.82
2023-04-18T13:25:32.631Z,21.13
2023-04-18T13:28:01.055Z,14.18
2023-04-18T13:30:29.174Z,12.73
2023-04-18T13:32:56.927Z,14.33
2023-04-18T13:35:24.876Z,13.90
2023-04-18T13:37:52.326Z,26.33
2023-04-18T13:40:19.887Z,25.60
2023-04-18T13:42:47.058Z,18.85
2023-04-18T13:45:14.265Z,19.03
2023-04-18T13:47:41.595Z,20.13
2023-04-18T13:50:09.645Z,26.87
2023-04-18T13:55:04.200Z,17.00
2023-04-18T13:57:33.724Z,25.23
2023-04-18T14:00:01.357Z,16.05
2023-04-18T14:02:41.603Z,17.58
2023-04-18T14:05:09.598Z,15.52
2023-04-18T14:07:38.451Z,12.60
2023-04-18T14:10:07.130Z,14.57
2023-04-18T14:12:34.779Z,10.40
2023-04-18T14:15:02.078Z,16.02
2023-04-18T14:17:32.665Z,16.83
2023-04-18T14:20:00.482Z,15.27
2023-04-18T14:22:27.714Z,14.63
2023-04-18T14:24:56.261Z,25.17
2023-04-18T14:27:25.557Z,21.58
2023-04-18T14:29:52.856Z,21.13
2023-04-18T14:32:20.235Z,13.83
2023-04-18T14:34:48.183Z,23.60
2023-04-18T14:37:15.777Z,26.85
2023-04-18T14:39:44.554Z,25.15
2023-04-18T14:42:11.865Z,14.97
2023-04-18T14:44:39.139Z,13.30
2023-04-18T14:47:06.567Z,18.17
2023-04-18T14:49:34.400Z,15.50
2023-04-18T14:52:01.686Z,16.58
2023-04-18T14:54:30.482Z,18.93
2023-04-18T14:56:59.620Z,23.45
2023-04-18T14:59:28.890Z,22.03
2023-04-18T15:01:56.517Z,26.92
2023-04-18T15:04:24.358Z,16.38
2023-04-18T15:06:51.984Z,14.93
2023-04-18T15:09:19.396Z,22.77
2023-04-18T15:11:46.990Z,22.97
2023-04-18T15:14:14.577Z,28.02
2023-04-18T15:16:41.984Z,22.17
2023-04-18T15:19:09.327Z,14.10
2023-04-18T15:21:36.693Z,21.77
2023-04-18T15:24:04.191Z,37.60
2023-04-18T15:26:33.143Z,18.75
2023-04-18T15:29:05.445Z,20.65
2023-04-18T15:31:32.949Z,21.95
2023-04-18T15:34:00.525Z,13.85
2023-04-18T15:36:28.268Z,20.88
2023-04-18T15:38:55.691Z,15.02
2023-04-18T15:41:23.420Z,20.88
2023-04-18T15:43:53.082Z,21.38
2023-04-18T15:59:07.485Z,8.05
2023-04-18T16:01:35.934Z,9.60
2023-04-18T16:04:03.538Z,11.73
2023-04-18T16:06:31.551Z,11.05
2023-04-18T16:08:58.908Z,12.95
2023-04-18T16:11:26.581Z,8.02
2023-04-18T16:13:56.348Z,12.35
2023-04-18T16:16:23.903Z,11.82
2023-04-18T16:18:51.335Z,16.40
2023-04-18T16:21:18.681Z,8.03
2023-04-18T16:23:46.142Z,11.73
2023-04-18T16:26:13.556Z,18.75
2023-04-18T16:28:42.259Z,18.10
2023-04-18T16:31:09.658Z,16.60
2023-04-18T16:33:37.140Z,17.37
2023-04-18T16:36:05.374Z,17.40
2023-04-18T16:38:33.306Z,14.80
2023-04-18T16:41:03.863Z,16.25
2023-04-18T16:43:31.327Z,22.02
2023-04-18T16:46:00.427Z,12.57
2023-04-18T16:48:29.159Z,12.35
2023-04-18T16:50:57.268Z,12.30
2023-04-18T16:53:25.282Z,14.73
2023-04-18T16:55:53.385Z,16.42
2023-04-18T17:00:49.162Z,12.70
2023-04-18T17:03:16.780Z,18.35
2023-04-18T17:05:44.761Z,14.10
2023-04-18T17:08:12.135Z,11.85
2023-04-18T17:10:39.493Z,19.23
2023-04-18T17:13:06.769Z,17.17
2023-04-18T17:15:34.366Z,14.75
2023-04-18T17:18:02.707Z,12.98
2023-04-18T17:20:30.009Z,13.88
2023-04-18T17:22:57.520Z,17.85
2023-04-18T17:25:24.890Z,19.70
2023-04-18T17:27:52.162Z,17.00
2023-04-18T17:30:19.602Z,29.23
2023-04-18T17:32:47.085Z,29.10
2023-04-18T17:35:14.997Z,18.60
2023-04-18T17:37:45.124Z,14.10
2023-04-18T17:40:13.297Z,20.27
2023-04-18T17:45:09.685Z,12.27
2023-04-18T17:47:37.137Z,14.25
2023-04-18T17:50:05.176Z,14.35
2023-04-18T17:55:04.153Z,26.67
2023-04-18T17:57:33.772Z,25.08
2023-04-18T18:00:01.801Z,28.67
2023-04-18T18:02:42.390Z,17.00
2023-04-18T18:05:14.385Z,19.80
2023-04-18T18:07:46.014Z,19.83
2023-04-18T18:10:23.387Z,20.13
2023-04-18T18:12:51.094Z,18.38
2023-04-18T18:15:19.164Z,12.38
2023-04-18T18:17:49.963Z,11.75
2023-04-18T18:20:18.178Z,11.88
2023-04-18T18:25:13.411Z,15.02
2023-04-18T18:27:41.057Z,17.35
2023-04-18T18:30:09.161Z,18.20
2023-04-18T18:32:36.575Z,17.45
2023-04-18T18:35:06.000Z,18.05
2023-04-18T18:37:33.773Z,11.02
2023-04-18T18:40:05.105Z,11.80
2023-04-18T18:42:32.608Z,16.77
2023-04-18T18:45:01.681Z,10.63
2023-04-18T18:47:32.348Z,14.50
2023-04-18T18:49:59.820Z,12.65
2023-04-18T18:52:29.880Z,7.37
2023-04-18T18:54:57.347Z,12.13
2023-04-18T18:57:25.206Z,12.30
2023-04-18T18:59:53.881Z,9.85
2023-04-18T19:02:23.410Z,9.45
2023-04-18T19:04:50.958Z,9.25
2023-04-18T19:07:18.375Z,10.80
2023-04-18T19:09:46.551Z,10.63
2023-04-18T19:12:15.170Z,14.57
2023-04-18T19:14:42.564Z,15.13
2023-04-18T19:17:09.968Z,15.83
2023-04-18T19:19:37.323Z,15.30
2023-04-18T19:22:06.088Z,22.83
2023-04-18T19:24:35.089Z,27.58
2023-04-18T19:27:03.122Z,14.13
2023-04-18T19:29:32.798Z,15.82
2023-04-18T19:32:00.437Z,14.57
2023-04-18T19:34:28.107Z,20.55
2023-04-18T19:36:55.420Z,15.18
2023-04-18T19:39:22.837Z,19.60
2023-04-18T19:41:50.156Z,24.37
2023-04-18T19:44:17.583Z,10.97
2023-04-18T19:46:44.858Z,11.70
2023-04-18T19:49:12.250Z,10.93
2023-04-18T19:51:40.466Z,27.50
2023-04-18T19:54:07.722Z,19.67
2023-04-18T19:56:35.434Z,15.52
2023-04-18T19:59:04.872Z,15.20
2023-04-18T20:01:32.342Z,19.75
2023-04-18T20:04:00.683Z,14.52
2023-04-18T20:06:28.734Z,14.90
2023-04-18T20:08:55.935Z,14.85
2023-04-18T20:11:23.168Z,20.35
2023-04-18T20:13:52.370Z,12.15
2023-04-18T20:16:19.698Z,16.50
2023-04-18T20:18:47.550Z,12.43
2023-04-18T20:21:15.052Z,16.13
2023-04-18T20:23:42.875Z,11.60
2023-04-18T20:26:10.166Z,13.35
2023-04-18T20:28:38.017Z,12.95
2023-04-18T20:31:05.418Z,12.77
2023-04-18T20:33:33.210Z,9.43
2023-04-18T20:36:00.472Z,11.13
2023-04-18T20:38:29.839Z,14.93
2023-04-18T20:40:58.952Z,12.50
2023-04-18T20:43:27.036Z,10.02
2023-04-18T20:45:54.652Z,11.75
2023-04-18T20:48:22.097Z,12.77
2023-04-18T20:50:52.209Z,9.97
2023-04-18T20:53:21.183Z,12.02
2023-04-18T20:55:49.121Z,10.02
2023-04-18T20:58:16.953Z,13.00
2023-04-18T21:00:45.063Z,8.93
2023-04-18T21:03:16.672Z,7.45
2023-04-18T21:05:45.245Z,7.40
2023-04-18T21:08:12.792Z,6.80
2023-04-18T21:10:40.207Z,8.88
2023-04-18T21:13:09.353Z,8.20
2023-04-18T21:15:36.800Z,9.10
2023-04-18T21:18:04.246Z,7.90
2023-04-18T21:20:31.850Z,7.82
2023-04-18T21:22:59.168Z,7.43
2023-04-18T21:25:26.493Z,5.60
2023-04-18T21:27:53.936Z,11.77
2023-04-18T21:30:21.841Z,10.48
2023-04-18T21:32:51.559Z,10.57
2023-04-18T21:35:20.739Z,9.63
2023-04-18T21:37:48.706Z,8.23
2023-04-18T21:40:16.240Z,7.07
2023-04-18T21:42:44.649Z,8.33
2023-04-18T21:45:12.211Z,7.30
2023-04-18T21:47:39.678Z,6.78
2023-04-18T21:50:08.100Z,9.00
2023-04-18T21:55:02.702Z,11.38
2023-04-18T21:57:33.039Z,7.28
2023-04-18T22:00:00.288Z,7.72
2023-04-18T22:02:28.187Z,10.98
2023-04-18T22:04:55.568Z,7.55
2023-04-18T22:07:24.703Z,6.85
2023-04-18T22:09:52.118Z,9.05
2023-04-18T22:12:19.352Z,8.68
2023-04-18T22:14:48.586Z,15.38
2023-04-18T22:17:16.210Z,9.40
2023-04-18T22:19:44.623Z,13.18
2023-04-18T22:22:12.497Z,16.25
2023-04-18T22:24:39.968Z,16.00
2023-04-18T22:27:07.433Z,10.17
2023-04-18T22:29:34.896Z,13.80
2023-04-18T22:32:02.171Z,11.52
2023-04-18T22:34:29.827Z,10.50
2023-04-18T22:36:57.085Z,11.38
2023-04-18T22:39:25.036Z,9.88
2023-04-18T22:41:52.346Z,9.18
2023-04-18T22:44:19.714Z,11.30
2023-04-18T22:46:48.323Z,14.57
2023-04-18T22:49:15.792Z,12.85
2023-04-18T22:51:44.120Z,12.70
2023-04-18T22:54:11.468Z,11.82
2023-04-18T22:56:38.771Z,9.32
2023-04-18T22:59:06.004Z,11.45
2023-04-18T23:01:33.368Z,16.10
2023-04-18T23:04:00.962Z,8.00
2023-04-18T23:06:30.111Z,9.15
2023-04-18T23:08:57.401Z,13.40
2023-04-18T23:11:26.419Z,9.33
2023-04-18T23:13:53.677Z,13.00
2023-04-18T23:16:21.211Z,9.23
2023-04-18T23:18:48.518Z,10.30
2023-04-18T23:21:17.608Z,11.07
2023-04-18T23:23:45.006Z,7.45
2023-04-18T23:26:16.180Z,11.83
2023-04-18T23:28:43.847Z,8.48
2023-04-18T23:31:11.857Z,11.95
2023-04-18T23:33:39.204Z,8.53
2023-04-18T23:36:07.181Z,7.60
2023-04-18T23:38:37.335Z,10.55
2023-04-18T23:41:04.805Z,9.77
2023-04-18T23:43:32.110Z,11.88
2023-04-18T23:45:59.455Z,12.07
2023-04-18T23:48:26.948Z,9.93
2023-04-18T23:50:54.526Z,8.10
2023-04-18T23:53:22.920Z,8.45
2023-04-18T23:55:51.118Z,11.88
2023-04-18T23:58:18.643Z,8.88
